createdAt,value
2023-03-24T00:00:23.359Z,74.76
2023-03-24T00:05:54.035Z,75.17
2023-03-24T00:08:23.534Z,75.65
2023-03-24T00:10:52.613Z,75.55
2023-03-24T00:13:21.883Z,75.47
2023-03-24T00:15:51.025Z,75.78
2023-03-24T00:18:22.123Z,76.29
2023-03-24T00:20:57.672Z,76.45
2023-03-24T00:23:31.792Z,76.31
2023-03-24T00:26:02.485Z,76.39
2023-03-24T00:28:34.420Z,76.61
2023-03-24T00:31:05.611Z,77.27
2023-03-24T00:33:35.026Z,77.60
2023-03-24T00:36:06.902Z,77.36
2023-03-24T00:38:40.348Z,77.20
2023-03-24T00:41:10.573Z,77.37
2023-03-24T00:43:39.920Z,77.92
2023-03-24T00:46:13.617Z,78.24
2023-03-24T00:48:42.597Z,77.94
2023-03-24T00:51:13.350Z,77.89
2023-03-24T00:53:43.190Z,78.15
2023-03-24T00:56:14.933Z,78.70
2023-03-24T00:58:47.268Z,78.68
2023-03-24T01:01:18.425Z,78.87
2023-03-24T01:03:50.224Z,79.22
2023-03-24T01:06:22.902Z,78.92
2023-03-24T01:08:54.918Z,78.43
2023-03-24T01:11:26.532Z,78.78
2023-03-24T01:13:56.077Z,79.10
2023-03-24T01:16:30.798Z,79.18
2023-03-24T01:19:00.039Z,79.62
2023-03-24T01:21:29.145Z,80.09
2023-03-24T01:23:58.360Z,79.87
2023-03-24T01:26:27.398Z,80.52
2023-03-24T01:28:56.525Z,80.09
2023-03-24T01:31:31.417Z,80.25
2023-03-24T01:34:00.498Z,80.05
2023-03-24T01:36:29.775Z,80.45
2023-03-24T01:39:00.678Z,80.08
2023-03-24T01:41:34.478Z,80.18
2023-03-24T01:44:31.536Z,80.79
2023-03-24T01:47:05.961Z,80.90
2023-03-24T01:49:40.710Z,81.04
2023-03-24T01:52:18.343Z,81.35
2023-03-24T01:54:52.196Z,81.25
2023-03-24T01:57:26.086Z,81.98
2023-03-24T01:59:57.232Z,80.97
2023-03-24T02:02:54.321Z,81.62
2023-03-24T02:05:28.535Z,82.71
2023-03-24T02:08:04.497Z,81.68
2023-03-24T02:10:36.150Z,82.42
2023-03-24T02:13:06.056Z,82.45
2023-03-24T02:15:45.048Z,81.69
2023-03-24T02:18:20.526Z,81.19
2023-03-24T02:21:33.688Z,82.38
2023-03-24T02:24:30.240Z,83.81
2023-03-24T02:27:23.211Z,83.20
2023-03-24T02:30:11.247Z,82.60
2023-03-24T02:33:19.381Z,82.59
2023-03-24T02:36:33.039Z,82.39
2023-03-24T02:39:29.280Z,82.74
2023-03-24T02:42:11.559Z,82.63
2023-03-24T02:44:48.559Z,82.86
2023-03-24T02:47:24.258Z,83.26
2023-03-24T02:50:01.394Z,83.53
2023-03-24T02:52:38.790Z,82.66
2023-03-24T02:55:17.888Z,83.16
2023-03-24T02:57:53.766Z,83.20
2023-03-24T03:00:58.710Z,83.52
2023-03-24T03:03:49.278Z,83.40
2023-03-24T03:06:25.835Z,82.96
2023-03-24T03:08:58.966Z,83.04
2023-03-24T03:11:28.134Z,83.03
2023-03-24T03:14:02.799Z,83.35
2023-03-24T03:16:40.772Z,83.88
2023-03-24T03:19:19.565Z,84.38
2023-03-24T03:21:50.974Z,84.88
2023-03-24T03:24:26.046Z,84.91
2023-03-24T03:27:07.717Z,85.19
2023-03-24T03:29:44.173Z,85.44
2023-03-24T03:32:15.003Z,84.88
2023-03-24T03:35:06.324Z,84.99
2023-03-24T03:37:44.459Z,85.38
2023-03-24T03:40:22.606Z,85.30
2023-03-24T03:42:55.943Z,84.55
2023-03-24T03:45:27.125Z,84.33
2023-03-24T03:47:56.528Z,84.60
2023-03-24T03:50:29.662Z,85.23
2023-03-24T03:53:03.960Z,85.14
2023-03-24T03:55:34.962Z,85.33
2023-03-24T03:58:06.108Z,85.30
2023-03-24T04:00:50.976Z,85.66
2023-03-24T04:04:05.112Z,85.80
2023-03-24T04:07:09.037Z,85.58
2023-03-24T04:09:49.981Z,84.93
2023-03-24T04:12:33.320Z,85.27
2023-03-24T04:15:34.557Z,84.84
2023-03-24T04:18:52.441Z,84.72
2023-03-24T04:21:37.889Z,85.01
2023-03-24T04:24:26.427Z,85.05
2023-03-24T04:27:04.148Z,84.96
2023-03-24T04:29:42.184Z,85.18
2023-03-24T04:32:21.978Z,84.99
2023-03-24T04:34:55.473Z,84.95
2023-03-24T04:37:40.986Z,86.00
2023-03-24T04:40:20.520Z,85.96
2023-03-24T04:42:52.286Z,85.71
2023-03-24T04:45:25.740Z,85.91
2023-03-24T04:48:21.179Z,86.15
2023-03-24T04:51:03.554Z,86.25
2023-03-24T04:53:51.763Z,86.29
2023-03-24T04:56:35.657Z,86.98
2023-03-24T04:59:12.366Z,86.76
2023-03-24T05:01:49.550Z,86.66
2023-03-24T05:04:41.257Z,86.69
2023-03-24T05:07:18.853Z,86.74
2023-03-24T05:09:51.725Z,86.53
2023-03-24T05:12:20.756Z,86.43
2023-03-24T05:15:11.142Z,86.39
2023-03-24T05:17:40.786Z,86.73
2023-03-24T05:20:11.978Z,86.65
2023-03-24T05:22:45.526Z,86.24
2023-03-24T05:25:15.386Z,86.52
2023-03-24T05:27:47.759Z,86.59
2023-03-24T05:30:26.538Z,86.62
2023-03-24T05:33:10.158Z,86.20
2023-03-24T05:35:44.687Z,85.82
2023-03-24T05:38:14.454Z,85.70
2023-03-24T05:40:46.026Z,85.72
2023-03-24T05:43:19.343Z,85.63
2023-03-24T05:46:02.035Z,85.42
2023-03-24T05:48:35.939Z,85.21
2023-03-24T05:51:14.868Z,85.21
2023-03-24T05:53:45.217Z,85.09
2023-03-24T05:56:27.585Z,84.99
2023-03-24T05:59:11.459Z,84.74
2023-03-24T06:02:09.493Z,84.59
2023-03-24T06:04:48.562Z,84.41
2023-03-24T06:07:21.682Z,84.25
2023-03-24T06:09:52.174Z,84.16
2023-03-24T06:12:23.780Z,83.96
2023-03-24T06:14:57.170Z,83.83
2023-03-24T06:17:28.225Z,83.71
2023-03-24T06:20:05.019Z,83.49
2023-03-24T06:22:34.615Z,83.31
2023-03-24T06:25:07.027Z,83.08
2023-03-24T06:27:36.106Z,82.85
2023-03-24T06:30:08.226Z,82.61
2023-03-24T06:32:37.914Z,82.40
2023-03-24T06:35:08.534Z,82.29
2023-03-24T06:37:47.486Z,82.08
2023-03-24T06:40:19.342Z,81.98
2023-03-24T06:42:56.146Z,81.94
2023-03-24T06:45:25.286Z,81.61
2023-03-24T06:47:58.713Z,81.56
2023-03-24T06:50:32.739Z,81.23
2023-03-24T06:53:02.427Z,80.76
2023-03-24T06:55:34.605Z,80.55
2023-03-24T06:58:06.328Z,80.38
2023-03-24T07:00:46.101Z,80.47
2023-03-24T07:03:26.079Z,80.14
2023-03-24T07:06:13.051Z,80.12
2023-03-24T07:08:45.363Z,79.93
2023-03-24T07:11:23.372Z,79.73
2023-03-24T07:13:55.932Z,79.58
2023-03-24T07:16:29.534Z,79.47
2023-03-24T07:19:05.267Z,79.47
2023-03-24T07:21:39.495Z,79.60
2023-03-24T07:24:09.034Z,80.17
2023-03-24T07:26:49.465Z,80.29
2023-03-24T07:29:26.511Z,80.36
2023-03-24T07:32:17.680Z,80.37
2023-03-24T07:34:48.244Z,80.27
2023-03-24T07:37:21.572Z,80.27
2023-03-24T07:39:51.261Z,80.45
2023-03-24T07:42:20.679Z,80.81
2023-03-24T07:45:15.591Z,81.24
2023-03-24T07:47:47.790Z,81.24
2023-03-24T07:50:17.875Z,80.98
2023-03-24T07:52:50.476Z,81.11
2023-03-24T07:55:21.971Z,81.30
2023-03-24T07:57:58.762Z,81.57
2023-03-24T08:00:29.904Z,82.02
2023-03-24T08:03:14.810Z,82.37
2023-03-24T08:06:09.524Z,82.51
2023-03-24T08:08:46.056Z,82.60
2023-03-24T08:11:14.991Z,82.73
2023-03-24T08:13:44.122Z,82.86
2023-03-24T08:16:13.195Z,83.26
2023-03-24T08:18:42.254Z,83.64
2023-03-24T08:21:11.101Z,83.51
2023-03-24T08:23:40.911Z,83.40
2023-03-24T08:26:10.774Z,82.71
2023-03-24T08:28:41.513Z,82.77
2023-03-24T08:31:12.075Z,82.71
2023-03-24T08:33:42.358Z,82.50
2023-03-24T08:36:11.355Z,82.63
2023-03-24T08:38:41.205Z,82.41
2023-03-24T08:41:10.066Z,82.77
2023-03-24T08:43:39.193Z,82.41
2023-03-24T08:46:10.579Z,82.10
2023-03-24T08:48:41.470Z,82.43
2023-03-24T08:51:15.109Z,82.53
2023-03-24T08:53:44.709Z,82.65
2023-03-24T08:56:14.116Z,82.44
2023-03-24T08:58:43.179Z,82.82
2023-03-24T09:01:12.721Z,82.71
2023-03-24T09:03:42.062Z,82.59
2023-03-24T09:06:11.398Z,82.59
2023-03-24T09:08:41.093Z,82.07
2023-03-24T09:11:16.921Z,81.14
2023-03-24T09:13:46.821Z,80.35
2023-03-24T09:16:17.992Z,76.13
2023-03-24T09:18:47.247Z,70.23
2023-03-24T09:21:22.877Z,68.10
2023-03-24T09:24:01.090Z,67.71
2023-03-24T09:26:30.602Z,67.73
2023-03-24T09:29:03.791Z,67.50
2023-03-24T09:31:36.633Z,66.75
2023-03-24T09:34:08.744Z,67.68
2023-03-24T09:36:40.929Z,68.06
2023-03-24T09:39:09.837Z,66.88
2023-03-24T09:41:40.931Z,66.06
2023-03-24T09:44:21.878Z,63.69
2023-03-24T09:47:02.015Z,62.69
2023-03-24T09:49:34.459Z,62.75
2023-03-24T09:52:07.420Z,63.33
2023-03-24T09:54:47.387Z,64.15
2023-03-24T09:57:21.969Z,64.21
2023-03-24T09:59:50.887Z,64.22
2023-03-24T10:02:21.804Z,65.48
2023-03-24T10:04:51.148Z,65.85
2023-03-24T10:07:27.787Z,66.19
2023-03-24T10:09:59.466Z,65.92
2023-03-24T10:12:36.796Z,65.92
2023-03-24T10:15:17.630Z,65.32
2023-03-24T10:17:57.641Z,65.67
2023-03-24T10:20:36.022Z,65.98
2023-03-24T10:23:21.090Z,66.24
2023-03-24T10:25:57.004Z,66.20
2023-03-24T10:28:34.844Z,66.76
2023-03-24T10:31:10.382Z,67.08
2023-03-24T10:33:42.585Z,67.68
2023-03-24T10:36:14.514Z,67.91
2023-03-24T10:38:44.136Z,68.11
2023-03-24T10:41:18.618Z,68.19
2023-03-24T10:43:50.840Z,68.39
2023-03-24T10:46:22.688Z,68.53
2023-03-24T10:48:54.612Z,68.44
2023-03-24T10:51:27.816Z,68.26
2023-03-24T10:54:12.322Z,68.62
2023-03-24T10:56:43.285Z,67.90
2023-03-24T10:59:25.556Z,68.13
2023-03-24T11:02:17.524Z,67.81
2023-03-24T11:04:57.329Z,68.07
2023-03-24T11:07:34.058Z,67.79
2023-03-24T11:10:07.694Z,67.94
2023-03-24T11:12:38.464Z,67.94
2023-03-24T11:15:23.013Z,67.71
2023-03-24T11:17:57.817Z,67.83
2023-03-24T11:20:31.620Z,67.99
2023-03-24T11:23:02.010Z,68.03
2023-03-24T11:25:36.398Z,68.06
2023-03-24T11:28:11.268Z,67.95
2023-03-24T11:30:47.778Z,67.92
2023-03-24T11:33:34.577Z,68.05
2023-03-24T11:36:25.507Z,68.00
2023-03-24T11:39:01.383Z,68.14
2023-03-24T11:41:30.754Z,67.96
2023-03-24T11:44:18.312Z,68.09
2023-03-24T11:46:51.123Z,68.24
2023-03-24T11:49:22.933Z,68.51
2023-03-24T11:52:01.211Z,68.33
2023-03-24T11:54:35.205Z,68.39
2023-03-24T11:57:15.250Z,68.37
2023-03-24T11:59:52.295Z,68.17
2023-03-24T12:02:33.518Z,67.80
2023-03-24T12:05:19.613Z,67.78
2023-03-24T12:08:07.967Z,67.59
2023-03-24T12:10:53.557Z,66.94
2023-03-24T12:13:35.281Z,66.73
2023-03-24T12:16:34.301Z,66.15
2023-03-24T12:19:27.159Z,65.83
2023-03-24T12:22:11.631Z,64.59
2023-03-24T12:24:58.831Z,64.41
2023-03-24T12:27:37.358Z,63.46
2023-03-24T12:30:13.831Z,62.67
2023-03-24T12:32:53.423Z,62.36
2023-03-24T12:35:52.717Z,61.31
2023-03-24T12:38:34.160Z,61.05
2023-03-24T12:41:38.080Z,59.61
2023-03-24T12:44:33.610Z,59.74
2023-03-24T12:47:17.209Z,58.68
2023-03-24T12:50:08.071Z,58.95
2023-03-24T12:55:41.050Z,58.93
2023-03-24T12:58:18.800Z,58.37
2023-03-24T13:00:58.713Z,58.31
2023-03-24T13:03:38.364Z,57.70
2023-03-24T13:06:19.104Z,57.88
2023-03-24T13:09:03.433Z,57.74
2023-03-24T13:11:43.486Z,57.12
2023-03-24T13:14:17.718Z,57.48
2023-03-24T13:16:49.924Z,57.29
2023-03-24T13:19:24.118Z,56.80
2023-03-24T13:22:06.655Z,57.25
2023-03-24T13:24:36.137Z,57.14
2023-03-24T13:27:18.147Z,57.53
2023-03-24T13:30:12.241Z,57.85
2023-03-24T13:32:45.225Z,57.11
2023-03-24T13:35:21.796Z,57.40
2023-03-24T13:37:54.431Z,57.06
2023-03-24T13:40:26.900Z,56.68
2023-03-24T13:42:59.289Z,56.83
2023-03-24T13:45:43.338Z,57.10
2023-03-24T13:48:26.460Z,56.82
2023-03-24T13:51:00.701Z,57.32
2023-03-24T13:53:41.527Z,57.09
2023-03-24T13:56:13.034Z,56.99
2023-03-24T13:59:05.450Z,55.87
2023-03-24T14:01:40.271Z,55.92
2023-03-24T14:04:24.923Z,56.28
2023-03-24T14:06:55.768Z,55.48
2023-03-24T14:09:27.209Z,56.23
2023-03-24T14:12:32.805Z,56.06
2023-03-24T14:15:21.801Z,56.17
2023-03-24T14:17:56.057Z,55.52
2023-03-24T14:20:36.495Z,56.22
2023-03-24T14:23:23.885Z,55.14
2023-03-24T14:25:56.248Z,55.36
2023-03-24T14:28:32.363Z,55.88
2023-03-24T14:31:18.158Z,55.37
2023-03-24T14:34:02.047Z,55.42
2023-03-24T14:36:34.781Z,55.22
2023-03-24T14:39:26.936Z,54.71
2023-03-24T14:42:11.720Z,54.44
2023-03-24T14:44:56.024Z,54.84
2023-03-24T14:47:35.957Z,54.66
2023-03-24T14:50:18.992Z,55.06
2023-03-24T14:52:53.511Z,55.08
2023-03-24T14:55:22.827Z,55.10
2023-03-24T14:57:56.023Z,54.92
2023-03-24T15:00:35.794Z,55.05
2023-03-24T15:03:18.697Z,55.14
2023-03-24T15:05:47.935Z,55.33
2023-03-24T15:08:22.805Z,55.40
2023-03-24T15:11:03.578Z,55.31
2023-03-24T15:13:38.929Z,55.28
2023-03-24T15:16:21.130Z,55.27
2023-03-24T15:19:01.371Z,55.54
2023-03-24T15:21:34.796Z,55.24
2023-03-24T15:24:25.810Z,55.38
2023-03-24T15:27:08.768Z,55.71
2023-03-24T15:29:40.942Z,55.47
2023-03-24T15:32:18.212Z,55.47
2023-03-24T15:34:53.842Z,55.51
2023-03-24T15:37:25.774Z,55.84
2023-03-24T15:40:05.169Z,55.96
2023-03-24T15:42:41.662Z,56.00
2023-03-24T15:45:20.214Z,55.90
2023-03-24T15:47:53.435Z,56.13
2023-03-24T15:50:35.225Z,56.44
2023-03-24T15:53:21.677Z,56.83
2023-03-24T15:56:04.208Z,57.17
2023-03-24T15:58:47.485Z,57.51
2023-03-24T16:01:27.946Z,57.76
2023-03-24T16:04:02.285Z,58.00
2023-03-24T16:06:35.490Z,58.34
2023-03-24T16:09:10.212Z,58.58
2023-03-24T16:11:40.993Z,58.40
2023-03-24T16:14:22.333Z,58.56
2023-03-24T16:16:55.807Z,58.94
2023-03-24T16:19:24.872Z,58.83
2023-03-24T16:21:54.388Z,59.17
2023-03-24T16:24:23.784Z,59.49
2023-03-24T16:26:52.864Z,59.53
2023-03-24T16:29:24.420Z,59.66
2023-03-24T16:31:56.325Z,60.04
2023-03-24T16:34:28.821Z,60.83
2023-03-24T16:37:05.150Z,62.16
2023-03-24T16:39:34.083Z,62.65
2023-03-24T16:42:06.585Z,62.74
2023-03-24T16:44:36.120Z,62.63
2023-03-24T16:47:11.501Z,63.21
2023-03-24T16:49:40.461Z,63.81
2023-03-24T16:52:12.985Z,64.30
2023-03-24T16:54:41.959Z,64.67
2023-03-24T16:57:10.866Z,65.33
2023-03-24T16:59:40.430Z,65.98
2023-03-24T17:02:10.755Z,66.49
2023-03-24T17:04:40.765Z,68.21
2023-03-24T17:07:10.055Z,69.13
2023-03-24T17:09:39.368Z,71.61
2023-03-24T17:12:10.169Z,73.79
2023-03-24T17:14:39.351Z,74.95
2023-03-24T17:17:11.604Z,75.43
2023-03-24T17:19:42.466Z,73.88
2023-03-24T17:22:17.545Z,77.22
2023-03-24T17:24:47.819Z,77.65
2023-03-24T17:27:20.718Z,78.77
2023-03-24T17:29:49.938Z,78.92
2023-03-24T17:32:28.926Z,80.16
2023-03-24T17:34:59.133Z,80.04
2023-03-24T17:37:29.257Z,81.04
2023-03-24T17:39:58.470Z,81.82
2023-03-24T17:42:27.860Z,82.28
2023-03-24T17:44:57.193Z,82.42
2023-03-24T17:47:26.307Z,82.59
2023-03-24T17:49:55.883Z,83.55
2023-03-24T17:52:25.192Z,83.65
2023-03-24T17:54:54.142Z,84.13
2023-03-24T17:57:23.149Z,84.07
2023-03-24T17:59:53.177Z,83.69
2023-03-24T18:02:22.595Z,84.32
2023-03-24T18:04:53.743Z,84.37
2023-03-24T18:07:22.961Z,84.57
2023-03-24T18:09:52.131Z,84.22
2023-03-24T18:12:21.854Z,84.89
2023-03-24T18:14:51.208Z,85.38
2023-03-24T18:17:20.261Z,85.18
2023-03-24T18:19:50.576Z,84.94
2023-03-24T18:22:21.226Z,85.73
2023-03-24T18:24:51.544Z,85.85
2023-03-24T18:27:20.504Z,85.82
2023-03-24T18:29:49.855Z,86.37
2023-03-24T18:32:21.596Z,86.22
2023-03-24T18:34:50.810Z,86.58
2023-03-24T18:37:20.698Z,86.93
2023-03-24T18:39:50.004Z,86.69
2023-03-24T18:42:19.330Z,86.56
2023-03-24T18:44:49.418Z,86.75
2023-03-24T18:47:22.084Z,86.98
2023-03-24T18:49:51.895Z,87.07
2023-03-24T18:52:20.927Z,86.93
2023-03-24T18:54:49.903Z,87.38
2023-03-24T18:57:19.760Z,87.06
2023-03-24T18:59:49.129Z,87.23
2023-03-24T19:02:19.222Z,87.34
2023-03-24T19:04:49.142Z,87.51
2023-03-24T19:07:24.241Z,87.54
2023-03-24T19:09:54.835Z,87.43
2023-03-24T19:12:23.863Z,87.40
2023-03-24T19:14:55.564Z,87.59
2023-03-24T19:17:25.815Z,87.90
2023-03-24T19:19:57.485Z,87.87
2023-03-24T19:22:26.761Z,87.72
2023-03-24T19:24:56.102Z,88.07
2023-03-24T19:27:26.708Z,88.39
2023-03-24T19:29:56.523Z,88.40
2023-03-24T19:32:25.586Z,88.21
2023-03-24T19:34:54.656Z,88.08
2023-03-24T19:37:24.091Z,87.93
2023-03-24T19:39:53.278Z,88.04
2023-03-24T19:42:24.034Z,87.48
2023-03-24T19:44:52.995Z,88.02
2023-03-24T19:47:22.641Z,88.13
2023-03-24T19:49:56.362Z,88.18
2023-03-24T19:52:25.054Z,87.71
2023-03-24T19:54:55.520Z,87.88
2023-03-24T19:57:29.761Z,88.08
2023-03-24T19:59:58.977Z,88.11
2023-03-24T20:02:28.958Z,88.11
2023-03-24T20:04:59.334Z,88.30
2023-03-24T20:07:29.646Z,88.33
2023-03-24T20:09:59.420Z,88.16
2023-03-24T20:12:29.178Z,88.41
2023-03-24T20:14:58.915Z,88.49
2023-03-24T20:17:29.162Z,88.68
2023-03-24T20:19:59.703Z,88.40
2023-03-24T20:22:29.164Z,88.47
2023-03-24T20:24:58.876Z,88.05
2023-03-24T20:27:30.496Z,88.55
2023-03-24T20:30:00.715Z,88.59
2023-03-24T20:32:29.937Z,88.57
2023-03-24T20:34:59.864Z,88.39
2023-03-24T20:37:30.574Z,88.01
2023-03-24T20:39:59.763Z,87.46
2023-03-24T20:42:29.607Z,87.83
2023-03-24T20:44:59.958Z,87.96
2023-03-24T20:47:28.964Z,87.74
2023-03-24T20:49:57.933Z,87.54
2023-03-24T20:52:29.292Z,87.61
2023-03-24T20:55:00.541Z,87.59
2023-03-24T20:57:30.817Z,87.55
2023-03-24T21:00:00.063Z,87.46
2023-03-24T21:02:31.258Z,87.45
2023-03-24T21:05:00.440Z,87.63
2023-03-24T21:07:31.638Z,87.68
2023-03-24T21:10:01.870Z,87.75
2023-03-24T21:12:33.368Z,87.94
2023-03-24T21:15:04.999Z,87.86
2023-03-24T21:17:35.196Z,87.93
2023-03-24T21:20:11.109Z,87.89
2023-03-24T21:22:53.643Z,87.84
2023-03-24T21:25:26.415Z,87.63
2023-03-24T21:27:56.214Z,87.61
2023-03-24T21:30:27.275Z,87.48
2023-03-24T21:32:59.085Z,87.63
2023-03-24T21:35:28.564Z,87.69
2023-03-24T21:37:57.653Z,87.71
2023-03-24T21:40:27.114Z,87.80
2023-03-24T21:43:06.965Z,87.40
2023-03-24T21:45:36.921Z,87.62
2023-03-24T21:48:13.433Z,87.21
2023-03-24T21:50:45.235Z,86.84
2023-03-24T21:53:20.765Z,86.94
2023-03-24T21:55:52.183Z,86.74
2023-03-24T21:58:22.282Z,86.61
2023-03-24T22:00:51.806Z,86.62
2023-03-24T22:03:25.253Z,86.98
2023-03-24T22:05:56.705Z,87.09
2023-03-24T22:08:29.880Z,87.21
2023-03-24T22:11:03.826Z,87.22
2023-03-24T22:13:33.388Z,87.34
2023-03-24T22:16:05.000Z,87.39
2023-03-24T22:18:40.462Z,87.45
2023-03-24T22:21:12.890Z,87.53
2023-03-24T22:23:43.110Z,87.34
2023-03-24T22:26:14.946Z,87.22
2023-03-24T22:28:45.133Z,86.97
2023-03-24T22:31:16.246Z,86.90
2023-03-24T22:33:47.523Z,86.77
2023-03-24T22:36:18.121Z,86.59
2023-03-24T22:38:47.062Z,86.72
2023-03-24T22:41:17.561Z,86.72
2023-03-24T22:43:46.603Z,86.63
2023-03-24T22:46:19.708Z,86.62
2023-03-24T22:48:48.628Z,86.56
2023-03-24T22:51:18.899Z,86.48
2023-03-24T22:53:48.489Z,86.45
2023-03-24T22:56:19.144Z,86.42
2023-03-24T22:58:48.346Z,86.40
2023-03-24T23:01:20.195Z,86.29
2023-03-24T23:03:49.104Z,86.37
2023-03-24T23:06:21.003Z,86.59
2023-03-24T23:08:49.875Z,86.63
2023-03-24T23:11:21.939Z,86.53
2023-03-24T23:13:51.720Z,86.57
2023-03-24T23:16:21.503Z,86.22
2023-03-24T23:18:51.155Z,86.75
2023-03-24T23:21:20.984Z,86.80
2023-03-24T23:23:50.726Z,86.82
2023-03-24T23:26:25.461Z,86.78
2023-03-24T23:28:55.640Z,86.88
2023-03-24T23:31:29.985Z,86.94
2023-03-24T23:33:59.694Z,87.20
2023-03-24T23:36:29.236Z,87.21
2023-03-24T23:38:58.165Z,87.35
2023-03-24T23:41:28.037Z,87.41
2023-03-24T23:43:56.835Z,87.44
2023-03-24T23:46:27.856Z,87.59
2023-03-24T23:48:59.352Z,87.60
2023-03-24T23:51:29.688Z,87.70
2023-03-24T23:53:58.489Z,87.83
2023-03-24T23:56:29.945Z,87.87
2023-03-24T23:58:58.829Z,87.88
